Humidity-temperature Sensor

Selected Measurement Type: Air Temperature

 
Air Temperature [°C]     6 entries per hour
Showing data from 12/9/2022 (12:00:00 Z) to 12/8/2022 (00:01:00 Z)
Previous Next [ Day | 3-Days | 7-Days ]
First Last
Prev [ Day | 3-Days | 7-Days ] Next
First Last

Start Time:     :
End Time:     :     
Time (in GMT) :00 :50 :40 :30 :20 :10
Previous Next [ Day | 3-Days | 7-Days ]
First Last
Prev [ Day | 3-Days | 7-Days ] Next
First Last


123 => good data
MM => data is determined as missing
-- => data not received/configured
Back to Top Back to Top
12/9/2022 12:00 to 11:10 25.11 25.16 25.11 25.13 25.01 24.83
12/9/2022 11:00 to 10:10 24.74 24.80 24.73 24.89 24.42 24.55
12/9/2022 10:00 to 9:10 24.70 24.62 24.62 24.48 24.35 24.79
12/9/2022 09:00 to 8:10 24.78 24.84 24.87 24.81 24.80 24.61
12/9/2022 08:00 to 7:10 24.57 24.53 24.72 24.62 25.20 25.09
12/9/2022 07:00 to 6:10 25.14 25.06 25.02 25.05 24.98 25.13
12/9/2022 06:00 to 5:10 24.97 24.90 24.81 24.88 24.99 25.10
12/9/2022 05:00 to 4:10 25.03 24.90 25.01 24.86 25.00 24.88
12/9/2022 04:00 to 3:10 24.82 24.72 24.77 24.63 24.46 24.48
12/9/2022 03:00 to 2:10 24.44 24.43 24.46 24.38 24.14 24.17
12/9/2022 02:00 to 1:10 24.37 24.08 24.09 23.95 24.00 23.76
12/9/2022 01:00 to 0:10 23.63 23.53 23.55 23.75 23.74 23.97
12/9/2022 00:00 to 23:10 23.93 23.97 24.08 24.01 23.91 24.00
12/8/2022 23:00 to 22:10 23.85 23.94 24.11 24.33 24.27 24.40
12/8/2022 22:00 to 21:10 24.18 24.22 24.01 24.14 24.19 24.21
12/8/2022 21:00 to 20:10 24.00 24.01 23.80 23.73 23.81 23.75
12/8/2022 20:00 to 19:10 23.52 23.46 23.37 23.27 23.26 22.87
12/8/2022 19:00 to 18:10 22.91 23.05 23.29 24.20 24.55 24.52
12/8/2022 18:00 to 17:10 24.55 24.59 24.58 24.52 24.52 24.35
12/8/2022 17:00 to 16:10 24.14 24.07 24.32 24.71 24.66 24.85
12/8/2022 16:00 to 15:10 25.19 25.31 25.22 25.14 25.18 25.28
12/8/2022 15:00 to 14:10 25.46 25.42 25.35 25.18 25.39 25.54
12/8/2022 14:00 to 13:10 25.56 25.31 25.48 25.29 25.38 25.44
12/8/2022 13:00 to 12:10 25.27 25.46 25.28 25.47 25.58 25.48
12/8/2022 12:00 to 11:10 25.37 25.55 25.51 25.23 25.16 25.34
12/8/2022 11:00 to 10:10 25.28 25.20 25.21 25.25 25.14 25.07
12/8/2022 10:00 to 9:10 25.07 25.12 25.13 25.12 25.12 25.08
12/8/2022 09:00 to 8:10 24.96 25.19 24.92 25.01 25.15 25.00
12/8/2022 08:00 to 7:10 25.12 24.79 25.03 24.98 25.10 25.09
12/8/2022 07:00 to 6:10 25.05 24.93 24.93 25.02 24.90 25.05
12/8/2022 06:00 to 5:10 25.08 24.95 25.02 24.92 24.97 25.08
12/8/2022 05:00 to 4:10 25.09 25.01 25.05 25.07 24.86 24.83
12/8/2022 04:00 to 3:10 24.88 24.73 24.79 24.74 24.83 24.91
12/8/2022 03:00 to 2:10 24.76 24.81 24.73 24.66 24.47 24.72
12/8/2022 02:00 to 1:10 24.49 24.53 24.33 24.57 24.47 24.61
12/8/2022 01:00 to 0:10 24.57 24.74 24.41 24.44 24.54 24.32